createdAt,value
2018-07-04T00:02:33.902Z,88.20
2018-07-04T00:07:50.401Z,87.90
2018-07-04T00:10:30.805Z,89.00
2018-07-04T00:13:11.525Z,87.90
2018-07-04T00:15:52.005Z,87.80
2018-07-04T00:18:32.395Z,88.70
2018-07-04T00:21:14.638Z,89.10
2018-07-04T00:23:55.168Z,89.60
2018-07-04T00:26:36.255Z,89.30
2018-07-04T00:29:16.808Z,89.40
2018-07-04T00:31:57.178Z,90.00
2018-07-04T00:34:38.088Z,89.20
2018-07-04T00:39:53.194Z,89.60
2018-07-04T00:42:36.320Z,88.70
2018-07-04T00:45:16.656Z,89.70
2018-07-04T00:47:57.200Z,89.80
2018-07-04T00:50:37.559Z,89.80
2018-07-04T00:53:18.168Z,89.80
2018-07-04T00:55:58.707Z,90.30
2018-07-04T00:58:39.271Z,90.10
2018-07-04T01:01:20.008Z,90.20
2018-07-04T01:04:00.414Z,90.20
2018-07-04T01:06:41.457Z,90.10
2018-07-04T01:09:21.912Z,90.40
2018-07-04T01:12:03.272Z,90.30
2018-07-04T01:14:45.617Z,90.90
2018-07-04T01:17:26.722Z,90.60
2018-07-04T01:20:07.362Z,90.80
2018-07-04T01:22:48.467Z,91.30
2018-07-04T01:25:29.009Z,91.40
2018-07-04T01:28:10.972Z,91.60
2018-07-04T01:30:51.479Z,91.80
2018-07-04T01:33:34.087Z,91.50
2018-07-04T01:36:14.535Z,91.30
2018-07-04T01:38:55.224Z,91.60
2018-07-04T01:41:35.782Z,91.60
2018-07-04T01:44:17.196Z,91.70
2018-07-04T01:46:57.765Z,91.10
2018-07-04T01:49:38.415Z,91.40
2018-07-04T01:52:18.791Z,91.40
2018-07-04T01:54:59.230Z,91.20
2018-07-04T01:57:40.221Z,91.40
2018-07-04T02:00:20.804Z,91.00
2018-07-04T02:03:03.144Z,91.10
2018-07-04T02:05:44.808Z,91.70
2018-07-04T02:08:25.301Z,91.70
2018-07-04T02:11:06.499Z,91.90
2018-07-04T02:13:47.622Z,92.00
2018-07-04T02:16:28.186Z,91.90
2018-07-04T02:19:08.836Z,92.20
2018-07-04T02:21:49.412Z,92.10
2018-07-04T02:24:29.873Z,92.40
2018-07-04T02:27:10.304Z,92.10
2018-07-04T02:29:51.714Z,92.60
2018-07-04T02:32:34.804Z,92.50
2018-07-04T02:35:20.234Z,93.00
2018-07-04T02:38:01.804Z,92.70
2018-07-04T02:40:42.303Z,92.60
2018-07-04T02:43:22.861Z,93.10
2018-07-04T02:46:03.549Z,92.80
2018-07-04T02:48:44.163Z,92.90
2018-07-04T02:51:24.622Z,92.60
2018-07-04T02:56:39.500Z,92.80
2018-07-04T02:59:19.897Z,93.40
2018-07-04T03:02:00.282Z,92.80
2018-07-04T03:04:40.908Z,93.30
2018-07-04T03:07:22.460Z,93.10
2018-07-04T03:10:03.833Z,93.40
2018-07-04T03:12:48.096Z,93.00
2018-07-04T03:15:28.603Z,93.10
2018-07-04T03:18:09.116Z,93.00
2018-07-04T03:20:53.327Z,92.70
2018-07-04T03:23:34.003Z,93.00
2018-07-04T03:26:14.890Z,92.90
2018-07-04T03:28:55.880Z,93.10
2018-07-04T03:31:38.371Z,93.00
2018-07-04T03:34:22.411Z,93.10
2018-07-04T03:37:03.309Z,93.00
2018-07-04T03:39:44.051Z,93.40
2018-07-04T03:42:24.615Z,93.30
2018-07-04T03:45:05.045Z,93.00
2018-07-04T03:47:45.574Z,93.20
2018-07-04T03:50:26.036Z,93.10
2018-07-04T03:53:06.591Z,93.30
2018-07-04T03:55:47.150Z,93.40
2018-07-04T03:58:27.639Z,93.40
2018-07-04T04:01:08.155Z,93.20
2018-07-04T04:03:49.607Z,92.90
2018-07-04T04:06:29.923Z,92.60
2018-07-04T04:09:10.437Z,92.90
2018-07-04T04:11:51.038Z,93.20
2018-07-04T04:14:32.036Z,93.10
2018-07-04T04:17:15.478Z,93.00
2018-07-04T04:19:57.999Z,93.50
2018-07-04T04:25:14.704Z,93.70
2018-07-04T04:27:55.608Z,93.80
2018-07-04T04:30:39.952Z,93.50
2018-07-04T04:33:20.387Z,93.60
2018-07-04T04:36:01.560Z,93.30
2018-07-04T04:38:42.246Z,93.20
2018-07-04T04:41:24.163Z,93.40
2018-07-04T04:44:04.924Z,93.40
2018-07-04T04:46:45.302Z,93.70
2018-07-04T04:49:25.918Z,93.60
2018-07-04T04:52:07.481Z,93.50
2018-07-04T04:54:48.955Z,93.10
2018-07-04T04:57:29.658Z,93.30
2018-07-04T05:00:10.315Z,93.80
2018-07-04T05:05:25.875Z,93.80
2018-07-04T05:08:07.400Z,93.90
2018-07-04T05:10:47.894Z,93.60
2018-07-04T05:13:28.627Z,93.50
2018-07-04T05:16:09.093Z,93.30
2018-07-04T05:18:50.291Z,93.00
2018-07-04T05:21:31.808Z,92.80
2018-07-04T05:24:12.452Z,92.80
2018-07-04T05:26:53.025Z,92.70
2018-07-04T05:29:34.777Z,92.50
2018-07-04T05:32:19.364Z,92.40
2018-07-04T05:34:59.933Z,92.70
2018-07-04T05:37:41.478Z,92.80
2018-07-04T05:40:21.981Z,92.90
2018-07-04T05:43:03.439Z,93.00
2018-07-04T05:45:44.321Z,93.00
2018-07-04T05:48:24.811Z,92.80
2018-07-04T05:51:05.551Z,92.60
2018-07-04T05:53:47.608Z,92.70
2018-07-04T05:56:28.868Z,92.60
2018-07-04T05:59:09.419Z,92.30
2018-07-04T06:01:50.167Z,92.40
2018-07-04T06:04:30.649Z,92.20
2018-07-04T06:07:11.447Z,92.40
2018-07-04T06:09:52.516Z,92.50
2018-07-04T06:12:33.023Z,92.60
2018-07-04T06:15:14.126Z,92.30
2018-07-04T06:17:56.329Z,92.20
2018-07-04T06:20:36.771Z,92.50
2018-07-04T06:23:18.169Z,92.80
2018-07-04T06:25:58.915Z,92.70
2018-07-04T06:28:40.214Z,92.30
2018-07-04T06:31:20.834Z,92.20
2018-07-04T06:34:01.521Z,91.90
2018-07-04T06:36:42.553Z,91.60
2018-07-04T06:39:10.778Z,91.00
2018-07-04T06:41:39.796Z,90.80
2018-07-04T06:44:08.108Z,90.40
2018-07-04T06:46:37.075Z,90.30
2018-07-04T06:49:05.346Z,90.00
2018-07-04T06:51:34.805Z,89.40
2018-07-04T06:54:03.272Z,87.20
2018-07-04T06:56:33.068Z,87.80
2018-07-04T06:59:01.384Z,86.40
2018-07-04T07:01:29.584Z,85.70
2018-07-04T07:04:11.139Z,84.50
2018-07-04T07:06:51.816Z,85.20
2018-07-04T07:09:32.603Z,83.30
2018-07-04T07:12:14.033Z,81.90
2018-07-04T07:14:54.688Z,80.70
2018-07-04T07:17:35.467Z,77.70
2018-07-04T07:20:15.957Z,79.10
2018-07-04T07:22:56.458Z,79.00
2018-07-04T07:25:41.355Z,77.70
2018-07-04T07:28:23.919Z,77.10
2018-07-04T07:31:04.667Z,77.50
2018-07-04T07:33:46.801Z,76.20
2018-07-04T07:36:28.251Z,75.40
2018-07-04T07:39:09.745Z,75.40
2018-07-04T07:41:50.570Z,74.50
2018-07-04T07:44:31.077Z,74.30
2018-07-04T07:47:12.174Z,73.10
2018-07-04T07:49:53.869Z,72.50
2018-07-04T07:52:34.511Z,73.70
2018-07-04T07:55:15.576Z,70.20
2018-07-04T07:57:56.144Z,70.20
2018-07-04T08:03:15.646Z,67.90
2018-07-04T08:05:56.197Z,66.90
2018-07-04T08:08:36.807Z,67.10
2018-07-04T08:11:17.503Z,66.20
2018-07-04T08:13:58.252Z,65.40
2018-07-04T08:16:38.979Z,64.90
2018-07-04T08:19:20.514Z,63.90
2018-07-04T08:22:02.113Z,62.50
2018-07-04T08:24:44.532Z,64.70
2018-07-04T08:27:26.175Z,62.80
2018-07-04T08:30:09.168Z,61.00
2018-07-04T08:32:50.648Z,60.00
2018-07-04T08:35:34.897Z,59.70
2018-07-04T08:38:19.531Z,61.50
2018-07-04T08:41:00.402Z,59.50
2018-07-04T08:43:40.827Z,58.00
2018-07-04T08:46:22.096Z,57.70
2018-07-04T08:49:02.814Z,58.20
2018-07-04T08:51:43.770Z,57.70
2018-07-04T08:54:24.652Z,56.90
2018-07-04T08:57:06.318Z,57.50
2018-07-04T08:59:47.661Z,55.70
2018-07-04T09:02:28.351Z,55.80
2018-07-04T09:05:08.829Z,56.80
2018-07-04T09:07:49.820Z,55.30
2018-07-04T09:10:31.408Z,54.40
2018-07-04T09:13:12.600Z,54.40
2018-07-04T09:15:53.937Z,53.60
2018-07-04T09:18:34.816Z,54.20
2018-07-04T09:21:15.462Z,54.90
2018-07-04T09:23:56.766Z,53.50
2018-07-04T09:26:37.588Z,52.40
2018-07-04T09:29:18.493Z,54.20
2018-07-04T09:31:59.211Z,53.00
2018-07-04T09:34:39.778Z,52.00
2018-07-04T09:37:20.981Z,52.10
2018-07-04T09:40:01.404Z,51.10
2018-07-04T09:42:45.620Z,50.90
2018-07-04T09:45:26.560Z,51.20
2018-07-04T09:48:10.996Z,51.70
2018-07-04T09:50:56.577Z,51.80
2018-07-04T09:53:37.531Z,51.80
2018-07-04T09:56:19.242Z,52.10
2018-07-04T09:59:00.375Z,50.40
2018-07-04T10:01:42.187Z,49.80
2018-07-04T10:04:24.318Z,48.70
2018-07-04T10:07:04.812Z,49.10
2018-07-04T10:09:47.130Z,48.20
2018-07-04T10:12:28.609Z,47.90
2018-07-04T10:15:09.335Z,48.30
2018-07-04T10:17:49.996Z,47.00
2018-07-04T10:20:30.409Z,47.60
2018-07-04T10:23:10.993Z,47.00
2018-07-04T10:25:56.865Z,46.80
2018-07-04T10:28:38.159Z,45.80
2018-07-04T10:31:18.972Z,45.30
2018-07-04T10:33:59.693Z,45.90
2018-07-04T10:36:40.127Z,45.20
2018-07-04T10:39:22.968Z,46.60
2018-07-04T10:42:03.746Z,46.00
2018-07-04T10:44:44.644Z,46.50
2018-07-04T10:47:25.247Z,42.40
2018-07-04T10:50:05.678Z,40.20
2018-07-04T10:52:46.524Z,39.70
2018-07-04T10:55:27.034Z,39.30
2018-07-04T10:58:07.456Z,39.90
2018-07-04T11:00:49.362Z,40.10
2018-07-04T11:03:29.978Z,38.70
2018-07-04T11:06:10.543Z,40.00
2018-07-04T11:08:52.239Z,40.30
2018-07-04T11:11:33.614Z,40.30
2018-07-04T11:14:15.717Z,39.40
2018-07-04T11:16:56.440Z,39.70
2018-07-04T11:19:37.024Z,39.70
2018-07-04T11:22:25.341Z,40.80
2018-07-04T11:25:06.051Z,41.30
2018-07-04T11:27:46.796Z,41.70
2018-07-04T11:30:27.724Z,41.80
2018-07-04T11:33:09.293Z,41.10
2018-07-04T11:35:50.719Z,41.70
2018-07-04T11:38:32.205Z,42.70
2018-07-04T11:41:13.020Z,43.20
2018-07-04T11:43:55.018Z,43.70
2018-07-04T11:46:23.252Z,42.70
2018-07-04T11:48:51.454Z,42.30
2018-07-04T11:51:21.951Z,42.10
2018-07-04T11:53:50.815Z,42.20
2018-07-04T11:56:19.050Z,42.50
2018-07-04T11:58:50.007Z,41.30
2018-07-04T12:01:18.149Z,41.30
2018-07-04T12:03:59.155Z,40.90
2018-07-04T12:06:40.580Z,40.90
2018-07-04T12:09:09.272Z,41.30
2018-07-04T12:11:38.391Z,41.30
2018-07-04T12:14:07.582Z,42.00
2018-07-04T12:16:35.658Z,42.80
2018-07-04T12:19:03.791Z,43.70
2018-07-04T12:21:32.492Z,45.50
2018-07-04T12:24:00.684Z,46.30
2018-07-04T12:26:28.788Z,47.00
2018-07-04T12:28:58.793Z,47.40
2018-07-04T12:31:26.894Z,48.50
2018-07-04T12:33:55.275Z,48.90
2018-07-04T12:36:23.485Z,49.90
2018-07-04T12:38:54.798Z,49.90
2018-07-04T12:41:25.505Z,50.20
2018-07-04T12:43:54.638Z,50.80
2018-07-04T12:46:22.744Z,51.30
2018-07-04T12:48:54.384Z,50.40
2018-07-04T12:51:24.237Z,50.60
2018-07-04T12:53:55.129Z,49.70
2018-07-04T12:56:40.916Z,48.20
2018-07-04T12:59:22.307Z,47.20
2018-07-04T13:02:04.896Z,47.80
2018-07-04T13:04:46.096Z,48.10
2018-07-04T13:07:26.958Z,47.50
2018-07-04T13:10:08.939Z,46.50
2018-07-04T13:12:50.154Z,46.50
2018-07-04T13:15:30.673Z,47.20
2018-07-04T13:18:11.410Z,47.40
2018-07-04T13:20:51.840Z,47.90
2018-07-04T13:23:32.431Z,47.60
2018-07-04T13:26:12.962Z,47.30
2018-07-04T13:28:53.771Z,48.00
2018-07-04T13:31:35.115Z,47.80
2018-07-04T13:34:15.895Z,47.80
2018-07-04T13:36:59.156Z,47.70
2018-07-04T13:39:39.844Z,47.90
2018-07-04T13:42:22.229Z,49.20
2018-07-04T13:45:03.088Z,50.60
2018-07-04T13:47:43.802Z,51.70
2018-07-04T13:50:24.306Z,52.10
2018-07-04T13:53:05.058Z,52.70
2018-07-04T13:55:45.483Z,53.30
2018-07-04T13:58:26.341Z,53.80
2018-07-04T14:01:08.748Z,54.20
2018-07-04T14:03:50.624Z,54.20
2018-07-04T14:06:31.225Z,54.10
2018-07-04T14:09:11.656Z,54.20
2018-07-04T14:11:52.143Z,54.50
2018-07-04T14:14:33.736Z,54.90
2018-07-04T14:17:14.329Z,55.60
2018-07-04T14:19:54.843Z,56.20
2018-07-04T14:22:35.495Z,56.80
2018-07-04T14:25:16.090Z,57.20
2018-07-04T14:27:56.488Z,57.40
2018-07-04T14:30:37.015Z,57.70
2018-07-04T14:33:17.616Z,58.00
2018-07-04T14:35:59.082Z,57.90
2018-07-04T14:38:40.726Z,58.10
2018-07-04T14:41:21.264Z,58.40
2018-07-04T14:44:02.223Z,58.60
2018-07-04T14:46:42.603Z,58.80
2018-07-04T14:49:27.614Z,59.70
2018-07-04T14:52:09.140Z,59.40
2018-07-04T14:54:49.559Z,59.20
2018-07-04T14:57:30.724Z,59.60
2018-07-04T15:00:12.942Z,60.10
2018-07-04T15:02:53.292Z,60.00
2018-07-04T15:05:38.484Z,60.60
2018-07-04T15:08:19.085Z,61.70
2018-07-04T15:10:59.787Z,62.20
2018-07-04T15:13:42.633Z,62.80
2018-07-04T15:16:25.550Z,62.70
2018-07-04T15:19:06.439Z,63.20
2018-07-04T15:21:48.740Z,63.60
2018-07-04T15:24:29.314Z,64.10
2018-07-04T15:27:12.783Z,65.10
2018-07-04T15:29:55.150Z,66.00
2018-07-04T15:32:38.202Z,66.50
2018-07-04T15:38:10.726Z,68.40
2018-07-04T15:40:51.031Z,69.10
2018-07-04T15:43:35.523Z,69.70
2018-07-04T15:46:16.662Z,70.10
2018-07-04T15:48:57.193Z,71.60
2018-07-04T15:51:37.876Z,71.00
2018-07-04T15:54:18.441Z,71.20
2018-07-04T15:56:59.001Z,71.50
2018-07-04T15:59:42.276Z,71.80
2018-07-04T16:02:23.327Z,72.40
2018-07-04T16:05:03.963Z,72.80
2018-07-04T16:07:44.930Z,72.90
2018-07-04T16:10:25.445Z,73.90
2018-07-04T16:13:06.115Z,73.20
2018-07-04T16:15:47.019Z,73.10
2018-07-04T16:18:27.432Z,73.10
2018-07-04T16:21:08.066Z,73.50
2018-07-04T16:23:49.161Z,73.50
2018-07-04T16:26:30.239Z,74.20
2018-07-04T16:31:45.248Z,74.40
2018-07-04T16:34:25.961Z,74.70
2018-07-04T16:37:06.391Z,75.10
2018-07-04T16:39:47.060Z,75.40
2018-07-04T16:42:27.768Z,75.60
2018-07-04T16:45:11.835Z,75.80
2018-07-04T16:47:52.243Z,76.40
2018-07-04T16:50:33.293Z,76.90
2018-07-04T16:53:15.192Z,77.20
2018-07-04T16:55:55.592Z,77.50
2018-07-04T16:58:38.492Z,78.10
2018-07-04T17:01:19.760Z,78.00
2018-07-04T17:04:02.044Z,78.00
2018-07-04T17:06:42.731Z,78.50
2018-07-04T17:09:23.308Z,78.80
2018-07-04T17:12:03.995Z,79.20
2018-07-04T17:14:45.377Z,79.10
2018-07-04T17:17:26.283Z,79.10
2018-07-04T17:20:07.132Z,79.50
2018-07-04T17:22:47.832Z,79.90
2018-07-04T17:25:28.604Z,80.10
2018-07-04T17:28:09.386Z,80.00
2018-07-04T17:30:51.213Z,80.40
2018-07-04T17:33:34.650Z,80.90
2018-07-04T17:36:16.130Z,81.30
2018-07-04T17:38:58.354Z,81.10
2018-07-04T17:41:43.587Z,81.70
2018-07-04T17:44:24.616Z,82.00
2018-07-04T17:47:05.256Z,82.20
2018-07-04T17:49:50.762Z,82.70
2018-07-04T17:52:32.444Z,83.50
2018-07-04T17:55:13.278Z,83.90
2018-07-04T17:57:54.267Z,84.40
2018-07-04T18:00:35.772Z,84.80
2018-07-04T18:03:16.536Z,85.50
2018-07-04T18:05:57.919Z,85.80
2018-07-04T18:08:39.415Z,86.40
2018-07-04T18:11:19.955Z,86.70
2018-07-04T18:14:00.446Z,87.00
2018-07-04T18:16:43.834Z,87.20
2018-07-04T18:19:24.174Z,87.80
2018-07-04T18:22:04.781Z,88.20
2018-07-04T18:24:45.256Z,88.60
2018-07-04T18:27:25.783Z,88.70
2018-07-04T18:30:06.938Z,88.90
2018-07-04T18:32:47.580Z,88.50
2018-07-04T18:35:28.672Z,89.10
2018-07-04T18:38:11.216Z,89.40
2018-07-04T18:40:52.719Z,89.40
2018-07-04T18:43:33.871Z,89.70
2018-07-04T18:46:19.451Z,89.80
2018-07-04T18:48:59.888Z,89.60
2018-07-04T18:51:41.365Z,90.00
2018-07-04T18:54:21.784Z,90.10
2018-07-04T18:57:02.403Z,90.20
2018-07-04T18:59:42.972Z,90.40
2018-07-04T19:02:23.696Z,91.30
2018-07-04T19:05:04.201Z,91.10
2018-07-04T19:07:44.865Z,91.10
2018-07-04T19:10:25.818Z,91.20
2018-07-04T19:13:09.805Z,91.30
2018-07-04T19:15:53.324Z,91.60
2018-07-04T19:18:33.999Z,91.60
2018-07-04T19:21:14.750Z,91.70
2018-07-04T19:23:58.767Z,92.00
2018-07-04T19:26:40.114Z,92.10
2018-07-04T19:29:24.577Z,92.30
2018-07-04T19:32:13.392Z,92.50
2018-07-04T19:34:54.640Z,92.60
2018-07-04T19:37:35.808Z,92.70
2018-07-04T19:40:20.577Z,92.70
2018-07-04T19:43:01.253Z,92.80
2018-07-04T19:45:46.916Z,93.00
2018-07-04T19:48:32.392Z,93.10
2018-07-04T19:51:13.368Z,93.10
2018-07-04T19:53:55.792Z,93.10
2018-07-04T19:56:38.202Z,93.10
2018-07-04T19:59:24.267Z,93.10
2018-07-04T20:02:05.056Z,93.10
2018-07-04T20:04:45.470Z,93.40
2018-07-04T20:07:32.280Z,93.20
2018-07-04T20:10:14.157Z,93.20
2018-07-04T20:12:54.740Z,93.20
2018-07-04T20:15:35.513Z,93.60
2018-07-04T20:18:16.779Z,93.40
2018-07-04T20:20:58.889Z,93.60
2018-07-04T20:23:39.943Z,93.80
2018-07-04T20:26:20.505Z,94.00
2018-07-04T20:29:02.319Z,94.10
2018-07-04T20:31:42.771Z,94.00
2018-07-04T20:34:23.581Z,94.10
2018-07-04T20:37:04.932Z,94.40
2018-07-04T20:39:51.624Z,94.10
2018-07-04T20:42:33.161Z,94.30
2018-07-04T20:45:17.459Z,94.40
2018-07-04T20:47:57.925Z,94.30
2018-07-04T20:50:38.458Z,94.60
2018-07-04T20:53:19.137Z,94.80
2018-07-04T20:55:59.698Z,95.20
2018-07-04T21:01:15.943Z,95.10
2018-07-04T21:03:57.679Z,95.50
2018-07-04T21:06:38.818Z,95.20
2018-07-04T21:09:19.183Z,95.40
2018-07-04T21:11:59.820Z,95.60
2018-07-04T21:14:43.458Z,95.60
2018-07-04T21:17:23.880Z,95.70
2018-07-04T21:20:04.479Z,95.90
2018-07-04T21:22:46.218Z,96.10
2018-07-04T21:25:26.765Z,96.10
2018-07-04T21:28:11.932Z,96.50
2018-07-04T21:30:56.772Z,96.70
2018-07-04T21:33:38.611Z,96.60
2018-07-04T21:36:23.634Z,96.60
2018-07-04T21:39:04.681Z,96.80
2018-07-04T21:41:45.484Z,96.60
2018-07-04T21:44:25.822Z,96.80
2018-07-04T21:47:10.706Z,97.10
2018-07-04T21:49:51.205Z,97.10
2018-07-04T21:52:32.051Z,97.00
2018-07-04T21:55:13.319Z,97.10
2018-07-04T21:57:54.778Z,97.10
2018-07-04T22:00:35.688Z,97.40
2018-07-04T22:03:16.361Z,97.30
2018-07-04T22:05:57.131Z,97.60
2018-07-04T22:08:37.608Z,97.20
2018-07-04T22:11:22.156Z,97.20
2018-07-04T22:14:02.682Z,97.40
2018-07-04T22:16:43.280Z,97.60
2018-07-04T22:19:23.964Z,97.50
2018-07-04T22:22:04.576Z,97.80
2018-07-04T22:24:49.013Z,97.70
2018-07-04T22:30:17.773Z,97.70
2018-07-04T22:32:59.081Z,97.90
2018-07-04T22:35:40.238Z,97.80
2018-07-04T22:38:22.694Z,98.40
2018-07-04T22:41:03.381Z,98.60
2018-07-04T22:43:45.703Z,98.40
2018-07-04T22:46:28.380Z,98.40
2018-07-04T22:49:08.975Z,98.70
2018-07-04T22:51:49.868Z,99.20
2018-07-04T22:54:30.355Z,98.50
2018-07-04T22:57:16.200Z,98.50
2018-07-04T22:59:58.174Z,98.50
2018-07-04T23:02:42.360Z,98.60
2018-07-04T23:05:23.711Z,98.90
2018-07-04T23:08:04.660Z,99.30
2018-07-04T23:10:45.240Z,99.30
2018-07-04T23:13:25.994Z,99.60
2018-07-04T23:16:07.264Z,99.70
2018-07-04T23:18:47.672Z,99.80
2018-07-04T23:21:28.137Z,99.90
2018-07-04T23:24:08.941Z,99.90
2018-07-04T23:26:51.135Z,99.90
2018-07-04T23:29:37.686Z,99.90
2018-07-04T23:32:19.872Z,99.90
2018-07-04T23:35:00.604Z,99.90
2018-07-04T23:37:42.562Z,99.90
2018-07-04T23:40:23.335Z,99.90
2018-07-04T23:43:03.894Z,99.90
2018-07-04T23:45:44.898Z,99.90
2018-07-04T23:48:26.158Z,99.90
2018-07-04T23:51:07.043Z,99.90
2018-07-04T23:53:47.622Z,99.90
2018-07-04T23:56:28.167Z,99.90
2018-07-04T23:59:10.972Z,99.90
